createdAt,value
2022-10-29T00:04:51.108Z,0
2022-10-29T00:09:51.347Z,0
2022-10-29T00:14:50.967Z,0
2022-10-29T00:19:51.203Z,0
2022-10-29T00:24:51.329Z,0
2022-10-29T00:29:50.922Z,0
2022-10-29T00:34:51.350Z,0
2022-10-29T00:39:51.140Z,0
2022-10-29T00:44:50.972Z,0
2022-10-29T00:49:50.783Z,0
2022-10-29T00:54:51.962Z,0
2022-10-29T00:59:50.843Z,0
2022-10-29T01:04:51.001Z,0
2022-10-29T01:09:51.101Z,0
2022-10-29T01:14:56.306Z,0
2022-10-29T01:19:51.051Z,0
2022-10-29T01:24:51.056Z,0
2022-10-29T01:29:50.774Z,0
2022-10-29T01:34:50.885Z,0
2022-10-29T01:39:52.988Z,0
2022-10-29T01:44:50.801Z,0
2022-10-29T01:49:53.115Z,0
2022-10-29T01:54:50.728Z,0
2022-10-29T01:59:56.041Z,0
2022-10-29T02:04:50.954Z,0
2022-10-29T02:09:50.964Z,0
2022-10-29T02:14:50.818Z,0
2022-10-29T02:19:51.032Z,0
2022-10-29T02:24:50.706Z,0
2022-10-29T02:29:50.651Z,0
2022-10-29T02:34:50.707Z,0
2022-10-29T02:39:50.931Z,0
2022-10-29T02:44:50.844Z,0
2022-10-29T02:49:50.933Z,0
2022-10-29T02:54:50.892Z,0
2022-10-29T02:59:50.956Z,0
2022-10-29T03:04:50.928Z,0
2022-10-29T03:09:50.803Z,0
2022-10-29T03:14:50.898Z,0
2022-10-29T03:19:50.644Z,0
2022-10-29T03:24:50.866Z,0
2022-10-29T03:29:50.941Z,0
2022-10-29T03:34:53.635Z,0
2022-10-29T03:39:50.635Z,0
2022-10-29T03:44:50.667Z,0
2022-10-29T03:49:50.787Z,0
2022-10-29T03:54:50.567Z,0
2022-10-29T03:59:52.607Z,0
2022-10-29T04:04:50.798Z,0
2022-10-29T04:09:50.814Z,0
2022-10-29T04:19:50.698Z,0
2022-10-29T04:29:50.752Z,0
2022-10-29T04:34:50.697Z,0
2022-10-29T04:39:50.728Z,0
2022-10-29T04:44:51.075Z,0
2022-10-29T04:49:50.877Z,0
2022-10-29T04:54:50.598Z,0
2022-10-29T04:59:50.582Z,0
2022-10-29T05:04:50.721Z,0
2022-10-29T05:09:50.747Z,0
2022-10-29T05:14:50.642Z,0
2022-10-29T05:19:51.049Z,0
2022-10-29T05:24:50.771Z,0
2022-10-29T05:29:50.566Z,0
2022-10-29T05:34:50.588Z,0
2022-10-29T05:39:50.599Z,0
2022-10-29T05:44:50.444Z,0
2022-10-29T05:49:50.832Z,0
2022-10-29T05:54:50.639Z,0
2022-10-29T05:59:50.541Z,0
2022-10-29T06:04:50.677Z,0
2022-10-29T06:09:50.584Z,0
2022-10-29T06:14:50.604Z,0
2022-10-29T06:19:50.989Z,0
2022-10-29T06:24:50.848Z,0
2022-10-29T06:29:50.633Z,0
2022-10-29T06:34:50.958Z,0.4
2022-10-29T06:39:50.934Z,1.2
2022-10-29T06:44:50.726Z,2.3
2022-10-29T06:49:50.801Z,3.4
2022-10-29T06:54:50.494Z,4.9
2022-10-29T06:59:50.690Z,6.4
2022-10-29T07:04:50.423Z,8.9
2022-10-29T07:09:50.559Z,9.8
2022-10-29T07:14:50.674Z,10.1
2022-10-29T07:19:50.552Z,14.2
2022-10-29T07:24:50.523Z,19.5
2022-10-29T07:29:50.617Z,22.4
2022-10-29T07:34:50.485Z,29.2
2022-10-29T07:39:50.521Z,36.2
2022-10-29T07:44:50.619Z,38.1
2022-10-29T07:49:50.547Z,44.6
2022-10-29T07:54:50.650Z,50.6
2022-10-29T07:59:50.716Z,50.4
2022-10-29T08:04:50.645Z,46.2
2022-10-29T08:09:50.490Z,50.3
2022-10-29T08:14:50.606Z,64.1
2022-10-29T08:19:50.652Z,69
2022-10-29T08:24:50.254Z,72.7
2022-10-29T08:29:50.311Z,75.4
2022-10-29T08:34:50.276Z,77
2022-10-29T08:39:50.301Z,80.4
2022-10-29T08:44:50.543Z,81.6
2022-10-29T08:49:50.558Z,84.8
2022-10-29T08:54:51.904Z,80.2
2022-10-29T08:59:50.399Z,76.3
2022-10-29T09:04:50.838Z,68.2
2022-10-29T09:09:50.491Z,63.6
2022-10-29T09:15:08.595Z,71.5
2022-10-29T09:19:58.647Z,83.5
2022-10-29T09:24:50.339Z,93.6
2022-10-29T09:29:50.206Z,85.1
2022-10-29T09:34:50.354Z,79.6
2022-10-29T09:39:50.230Z,83.9
2022-10-29T09:44:52.101Z,89.6
2022-10-29T09:49:50.231Z,82.3
2022-10-29T09:54:50.470Z,79.1
2022-10-29T09:59:52.938Z,86.9
2022-10-29T10:04:50.517Z,95
2022-10-29T10:09:50.284Z,111.4
2022-10-29T10:14:50.504Z,124.3
2022-10-29T10:19:50.634Z,132.6
2022-10-29T10:24:50.528Z,132.4
2022-10-29T10:29:50.385Z,138.9
2022-10-29T10:34:50.445Z,133.2
2022-10-29T10:39:50.155Z,125
2022-10-29T10:44:50.186Z,140.9
2022-10-29T10:49:50.439Z,140.2
2022-10-29T10:54:50.256Z,113.9
2022-10-29T10:59:53.699Z,99.4
2022-10-29T11:04:50.339Z,119.3
2022-10-29T11:09:51.319Z,156.5
2022-10-29T11:14:50.224Z,155.1
2022-10-29T11:19:50.151Z,166.8
2022-10-29T11:24:50.095Z,243.5
2022-10-29T11:29:53.036Z,159.2
2022-10-29T11:34:52.970Z,135.5
2022-10-29T11:39:50.208Z,134
2022-10-29T11:44:50.069Z,135
2022-10-29T11:49:50.060Z,175.3
2022-10-29T11:54:56.265Z,231.4
2022-10-29T12:00:00.615Z,244.2
2022-10-29T12:04:56.594Z,280.2
2022-10-29T12:09:50.247Z,290.7
2022-10-29T12:14:50.392Z,353.4
2022-10-29T12:19:50.113Z,475.9
2022-10-29T12:24:50.210Z,515.4
2022-10-29T12:29:54.593Z,501.1
2022-10-29T12:34:53.803Z,573.4
2022-10-29T12:39:50.124Z,334.6
2022-10-29T12:44:50.022Z,247.8
2022-10-29T12:49:58.562Z,231.9
2022-10-29T12:54:50.068Z,150.6
2022-10-29T12:59:50.236Z,117
2022-10-29T13:04:50.208Z,115
2022-10-29T13:09:50.282Z,136.7
2022-10-29T13:14:52.734Z,119
2022-10-29T13:19:50.048Z,106.5
2022-10-29T13:25:21.351Z,102.7
2022-10-29T13:30:09.491Z,101
2022-10-29T13:34:51.978Z,102.7
2022-10-29T13:39:50.336Z,100.6
2022-10-29T13:44:51.964Z,99.5
2022-10-29T13:49:50.716Z,102.8
2022-10-29T13:54:49.998Z,96.8
2022-10-29T13:59:50.300Z,86.2
2022-10-29T14:04:50.159Z,78.6
2022-10-29T14:09:50.020Z,75.5
2022-10-29T14:14:50.194Z,74.7
2022-10-29T14:19:50.217Z,74.8
2022-10-29T14:24:50.245Z,80.5
2022-10-29T14:29:53.081Z,86.4
2022-10-29T14:34:50.510Z,86.1
2022-10-29T14:39:57.947Z,79.8
2022-10-29T14:44:49.907Z,72.9
2022-10-29T14:49:49.983Z,64.6
2022-10-29T14:54:50.021Z,55.6
2022-10-29T14:59:50.143Z,49.7
2022-10-29T15:04:50.055Z,45.7
2022-10-29T15:10:02.194Z,47
2022-10-29T15:14:50.868Z,43.5
2022-10-29T15:19:50.089Z,40.2
2022-10-29T15:24:49.904Z,36.4
2022-10-29T15:29:50.032Z,26.5
2022-10-29T15:34:49.952Z,20.5
2022-10-29T15:39:50.006Z,17.3
2022-10-29T15:44:50.144Z,14.8
2022-10-29T15:49:50.055Z,13.1
2022-10-29T15:54:50.141Z,11.7
2022-10-29T15:59:50.149Z,10.6
2022-10-29T16:04:50.121Z,9.3
2022-10-29T16:09:50.003Z,7.7
2022-10-29T16:14:49.753Z,5
2022-10-29T16:19:50.142Z,2.7
2022-10-29T16:24:49.787Z,1.3
2022-10-29T16:29:50.128Z,0.4
2022-10-29T16:34:49.951Z,0.1
2022-10-29T16:39:50.200Z,0
2022-10-29T16:44:49.886Z,0
2022-10-29T16:49:49.949Z,0
2022-10-29T16:54:49.786Z,0
2022-10-29T16:59:49.914Z,0
2022-10-29T17:04:49.969Z,0
2022-10-29T17:09:50.121Z,0
2022-10-29T17:14:50.106Z,0
2022-10-29T17:19:50.057Z,0
2022-10-29T17:24:50.008Z,0
2022-10-29T17:29:49.720Z,0
2022-10-29T17:34:49.836Z,0
2022-10-29T17:39:49.974Z,0
2022-10-29T17:44:49.912Z,0
2022-10-29T17:49:49.684Z,0
2022-10-29T17:54:49.727Z,0
2022-10-29T17:59:49.999Z,0
2022-10-29T18:04:50.150Z,0
2022-10-29T18:09:49.993Z,0
2022-10-29T18:14:49.954Z,0
2022-10-29T18:19:50.173Z,0
2022-10-29T18:24:49.943Z,0
2022-10-29T18:29:50.088Z,0
2022-10-29T18:34:49.759Z,0
2022-10-29T18:39:50.277Z,0
2022-10-29T18:44:49.582Z,0
2022-10-29T18:49:50.011Z,0
2022-10-29T18:54:49.914Z,0
2022-10-29T18:59:49.785Z,0
2022-10-29T19:04:49.754Z,0
2022-10-29T19:09:49.988Z,0
2022-10-29T19:14:49.620Z,0
2022-10-29T19:19:49.653Z,0
2022-10-29T19:24:49.917Z,0
2022-10-29T19:29:49.695Z,0
2022-10-29T19:34:50.036Z,0
2022-10-29T19:39:49.732Z,0
2022-10-29T19:44:53.652Z,0
2022-10-29T19:49:49.866Z,0
2022-10-29T19:54:49.812Z,0
2022-10-29T19:59:49.627Z,0
2022-10-29T20:04:49.771Z,0
2022-10-29T20:09:49.828Z,0
2022-10-29T20:14:49.612Z,0
2022-10-29T20:19:49.741Z,0
2022-10-29T20:24:49.686Z,0
2022-10-29T20:29:49.614Z,0
2022-10-29T20:34:49.582Z,0
2022-10-29T20:39:49.723Z,0
2022-10-29T20:44:49.592Z,0
2022-10-29T20:49:49.767Z,0
2022-10-29T20:54:49.599Z,0
2022-10-29T20:59:49.833Z,0
2022-10-29T21:04:49.552Z,0
2022-10-29T21:09:49.788Z,0
2022-10-29T21:14:49.667Z,0
2022-10-29T21:19:49.811Z,0
2022-10-29T21:24:50.010Z,0
2022-10-29T21:29:49.506Z,0
2022-10-29T21:34:49.664Z,0
2022-10-29T21:39:49.558Z,0
2022-10-29T21:44:49.644Z,0
2022-10-29T21:49:51.825Z,0
2022-10-29T21:54:49.693Z,0
2022-10-29T21:59:49.648Z,0
2022-10-29T22:04:49.709Z,0
2022-10-29T22:09:49.799Z,0
2022-10-29T22:14:49.693Z,0
2022-10-29T22:19:49.584Z,0
2022-10-29T22:24:49.597Z,0
2022-10-29T22:29:53.505Z,0
2022-10-29T22:34:49.737Z,0
2022-10-29T22:39:49.538Z,0
2022-10-29T22:44:49.483Z,0
2022-10-29T22:49:49.684Z,0
2022-10-29T22:54:49.376Z,0
2022-10-29T22:59:49.696Z,0
2022-10-29T23:04:49.722Z,0
2022-10-29T23:09:49.489Z,0
2022-10-29T23:14:49.489Z,0
2022-10-29T23:19:49.776Z,0
2022-10-29T23:24:49.886Z,0
2022-10-29T23:29:49.930Z,0
2022-10-29T23:34:49.650Z,0
2022-10-29T23:39:49.610Z,0
2022-10-29T23:44:49.348Z,0
2022-10-29T23:49:49.466Z,0
2022-10-29T23:54:49.561Z,0
2022-10-29T23:59:49.350Z,0
